Talbott, Illinois
Current Conditions -  °F | °C
As of 3:54 PM on Tuesday 21 Oct 2014 (Local Time) from KPIA Reporting Station
Clear Clear  
Wind Chill: 61°   Ceiling: Unl
Heat Index: 61°   Visibility: 10mi
Dew Point: 38°   Wind: 8mph
Humidity: 42%   Direction: 30°NNE
Pressure: 30.16"   Gusts: NA
Location:  40.3879°N, 89.7742°W
Report Text: KPIA 212054Z 03007KT 10SM CLR 16/03 A3016 RMK AO2 SLP215 T01610033 55001
Loading
Personal Weather Stations






























Interactive Weather Map
Tropical Storm Tracking
New forecast layout! Learn more

10-Day Weather Forecast

Advertisements
Track Severe Weather on mobile